createdAt,value
2023-04-01T00:14:27.937Z,986.7289999999999
2023-04-01T00:44:47.184Z,986.5049
2023-04-01T01:15:04.000Z,986.508
2023-04-01T01:45:21.484Z,986.482
2023-04-01T02:15:39.015Z,986.477
2023-04-01T02:46:01.268Z,986.449
2023-04-01T03:16:21.374Z,986.436
2023-04-01T03:46:41.791Z,986.432
2023-04-01T04:16:59.532Z,986.422
2023-04-01T05:17:34.421Z,986.4679
2023-04-01T05:47:52.952Z,986.2789
2023-04-01T06:18:11.479Z,986.1428999999999
2023-04-01T06:48:29.758Z,986.368
2023-04-01T07:18:52.863Z,986.3439999999999
2023-04-01T07:49:12.322Z,986.4889
2023-04-01T08:19:32.967Z,986.8679
2023-04-01T09:20:08.557Z,987.211
2023-04-01T09:50:26.805Z,987.2728999999999
2023-04-01T10:20:46.352Z,987.5778999999999
2023-04-01T10:51:04.545Z,987.465
2023-04-01T11:21:26.643Z,987.547
2023-04-01T11:51:43.408Z,987.7760000000001
2023-04-01T12:21:59.593Z,988.1010000000001
2023-04-01T12:52:20.644Z,988.24
2023-04-01T13:22:34.451Z,988.2710000000001
2023-04-01T13:52:52.428Z,988.1569999999999
2023-04-01T14:23:11.889Z,988.6060000000001
2023-04-01T14:53:27.447Z,988.862
2023-04-01T15:23:45.796Z,988.992
2023-04-01T15:54:03.602Z,989.3639999999999
2023-04-01T16:24:22.100Z,989.8660000000001
2023-04-01T16:54:37.104Z,990.0339
2023-04-01T17:24:57.438Z,990.465
2023-04-01T17:55:14.353Z,990.845
2023-04-01T18:25:30.870Z,991.2529
2023-04-01T18:55:46.448Z,991.737
2023-04-01T19:26:04.045Z,992.0778999999999
2023-04-01T19:56:20.638Z,992.3969999999999
2023-04-01T20:26:37.030Z,992.9689
2023-04-01T20:56:56.590Z,993.046
2023-04-01T21:27:16.794Z,993.4679
2023-04-01T22:27:50.943Z,994.1510000000001
2023-04-01T22:58:09.148Z,994.3399000000001
2023-04-01T23:28:25.959Z,994.6060000000001
2023-04-01T23:58:44.584Z,994.918
